sensor_id;sensor_type;location;lat;lon;timestamp;pressure;altitude;pressure_sealevel;temperature;humidity
44934;BME280;30667;43.614;1.442;2023-08-21T00:01:59;100406.03;;;28.92;100.00
44934;BME280;30667;43.614;1.442;2023-08-21T00:04:24;100407.59;;;28.75;100.00
44934;BME280;30667;43.614;1.442;2023-08-21T00:06:50;100410.72;;;28.63;100.00
44934;BME280;30667;43.614;1.442;2023-08-21T00:09:15;100408.25;;;28.51;100.00
44934;BME280;30667;43.614;1.442;2023-08-21T00:11:41;100403.06;;;28.45;100.00
44934;BME280;30667;43.614;1.442;2023-08-21T00:14:06;100413.41;;;28.49;100.00
44934;BME280;30667;43.614;1.442;2023-08-21T00:16:32;100410.59;;;28.41;100.00
44934;BME280;30667;43.614;1.442;2023-08-21T00:18:57;100415.38;;;28.41;100.00
44934;BME280;30667;43.614;1.442;2023-08-21T00:21:23;100420.09;;;28.37;100.00
44934;BME280;30667;43.614;1.442;2023-08-21T00:23:48;100416.13;;;28.34;100.00
44934;BME280;30667;43.614;1.442;2023-08-21T00:26:14;100416.91;;;28.27;100.00
44934;BME280;30667;43.614;1.442;2023-08-21T00:28:39;100422.41;;;28.24;100.00
44934;BME280;30667;43.614;1.442;2023-08-21T00:31:05;100422.41;;;28.20;100.00
44934;BME280;30667;43.614;1.442;2023-08-21T00:33:31;100421.16;;;28.11;100.00
44934;BME280;30667;43.614;1.442;2023-08-21T00:35:57;100425.50;;;28.08;100.00
44934;BME280;30667;43.614;1.442;2023-08-21T00:38:23;100427.09;;;28.05;100.00
44934;BME280;30667;43.614;1.442;2023-08-21T00:40:49;100428.63;;;27.99;100.00
44934;BME280;30667;43.614;1.442;2023-08-21T00:43:15;100433.28;;;27.88;100.00
44934;BME280;30667;43.614;1.442;2023-08-21T00:45:42;100436.06;;;27.84;100.00
44934;BME280;30667;43.614;1.442;2023-08-21T00:48:10;100430.88;;;27.83;100.00
44934;BME280;30667;43.614;1.442;2023-08-21T00:50:40;100428.88;;;27.83;100.00
44934;BME280;30667;43.614;1.442;2023-08-21T00:53:05;100430.44;;;27.81;100.00
44934;BME280;30667;43.614;1.442;2023-08-21T00:55:32;100427.25;;;27.75;100.00
44934;BME280;30667;43.614;1.442;2023-08-21T00:57:57;100433.59;;;27.76;100.00
44934;BME280;30667;43.614;1.442;2023-08-21T01:00:24;100427.25;;;27.75;100.00
44934;BME280;30667;43.614;1.442;2023-08-21T01:02:53;100432.31;;;27.66;100.00
44934;BME280;30667;43.614;1.442;2023-08-21T01:05:21;100431.53;;;27.65;100.00
44934;BME280;30667;43.614;1.442;2023-08-21T01:07:55;100432.31;;;27.62;100.00
44934;BME280;30667;43.614;1.442;2023-08-21T01:10:49;100430.66;;;27.54;100.00
44934;BME280;30667;43.614;1.442;2023-08-21T01:15:58;100430.47;;;27.36;100.00
44934;BME280;30667;43.614;1.442;2023-08-21T01:18:25;100432.03;;;27.33;100.00
44934;BME280;30667;43.614;1.442;2023-08-21T01:20:52;100439.84;;;27.24;100.00
44934;BME280;30667;43.614;1.442;2023-08-21T01:23:37;100435.09;;;27.25;100.00
44934;BME280;30667;43.614;1.442;2023-08-21T01:26:03;100434.69;;;27.23;100.00
44934;BME280;30667;43.614;1.442;2023-08-21T01:28:33;100434.28;;;27.21;100.00
44934;BME280;30667;43.614;1.442;2023-08-21T01:31:11;100443.78;;;27.19;100.00
44934;BME280;30667;43.614;1.442;2023-08-21T01:33:45;100432.25;;;27.17;100.00
44934;BME280;30667;43.614;1.442;2023-08-21T01:36:13;100439.72;;;27.13;100.00
44934;BME280;30667;43.614;1.442;2023-08-21T01:38:39;100441.22;;;27.04;100.00
44934;BME280;30667;43.614;1.442;2023-08-21T01:41:05;100440.75;;;26.98;100.00
44934;BME280;30667;43.614;1.442;2023-08-21T01:43:31;100441.09;;;26.93;100.00
44934;BME280;30667;43.614;1.442;2023-08-21T01:45:56;100443.03;;;26.89;100.00
44934;BME280;30667;43.614;1.442;2023-08-21T01:48:22;100439.81;;;26.87;100.00
44934;BME280;30667;43.614;1.442;2023-08-21T01:50:47;100444.59;;;26.86;100.00
44934;BME280;30667;43.614;1.442;2023-08-21T01:53:13;100439.75;;;26.79;100.00
44934;BME280;30667;43.614;1.442;2023-08-21T01:55:38;100444.53;;;26.79;100.00
44934;BME280;30667;43.614;1.442;2023-08-21T01:58:06;100447.59;;;26.74;100.00
44934;BME280;30667;43.614;1.442;2023-08-21T02:00:31;100451.81;;;26.64;100.00
44934;BME280;30667;43.614;1.442;2023-08-21T02:02:57;100448.31;;;26.67;100.00
44934;BME280;30667;43.614;1.442;2023-08-21T02:05:22;100449.41;;;26.62;100.00
44934;BME280;30667;43.614;1.442;2023-08-21T02:07:48;100454.13;;;26.58;100.00
44934;BME280;30667;43.614;1.442;2023-08-21T02:10:13;100454.94;;;26.59;100.00
44934;BME280;30667;43.614;1.442;2023-08-21T02:12:39;100461.28;;;26.59;100.00
44934;BME280;30667;43.614;1.442;2023-08-21T02:15:05;100456.53;;;26.60;100.00
44934;BME280;30667;43.614;1.442;2023-08-21T02:17:48;100459.16;;;26.49;100.00
44934;BME280;30667;43.614;1.442;2023-08-21T02:20:32;100462.28;;;26.44;100.00
44934;BME280;30667;43.614;1.442;2023-08-21T02:23:01;100462.56;;;26.39;100.00
44934;BME280;30667;43.614;1.442;2023-08-21T02:25:26;100457.78;;;26.36;100.00
44934;BME280;30667;43.614;1.442;2023-08-21T02:27:51;100458.09;;;26.31;100.00
44934;BME280;30667;43.614;1.442;2023-08-21T02:30:17;100458.84;;;26.27;100.00
44934;BME280;30667;43.614;1.442;2023-08-21T02:32:42;100461.94;;;26.22;100.00
44934;BME280;30667;43.614;1.442;2023-08-21T02:35:08;100461.91;;;26.19;100.00
44934;BME280;30667;43.614;1.442;2023-08-21T02:37:34;100461.03;;;26.15;100.00
44934;BME280;30667;43.614;1.442;2023-08-21T02:40:05;100471.72;;;26.13;100.00
44934;BME280;30667;43.614;1.442;2023-08-21T02:42:33;100466.91;;;26.09;100.00
44934;BME280;30667;43.614;1.442;2023-08-21T02:44:58;100464.81;;;26.03;100.00
44934;BME280;30667;43.614;1.442;2023-08-21T02:47:24;100472.72;;;26.01;100.00
44934;BME280;30667;43.614;1.442;2023-08-21T02:49:49;100464.41;;;26.01;100.00
44934;BME280;30667;43.614;1.442;2023-08-21T02:52:14;100465.50;;;25.96;100.00
44934;BME280;30667;43.614;1.442;2023-08-21T02:54:40;100474.25;;;25.98;100.00
44934;BME280;30667;43.614;1.442;2023-08-21T02:57:05;100469.44;;;25.95;100.00
44934;BME280;30667;43.614;1.442;2023-08-21T02:59:31;100472.88;;;25.88;100.00
44934;BME280;30667;43.614;1.442;2023-08-21T03:01:56;100469.66;;;25.86;100.00
44934;BME280;30667;43.614;1.442;2023-08-21T03:04:22;100470.13;;;25.88;100.00
44934;BME280;30667;43.614;1.442;2023-08-21T03:06:48;100474.78;;;25.84;100.00
44934;BME280;30667;43.614;1.442;2023-08-21T03:09:13;100473.63;;;25.85;100.00
44934;BME280;30667;43.614;1.442;2023-08-21T03:11:39;100478.13;;;25.70;100.00
44934;BME280;30667;43.614;1.442;2023-08-21T03:14:04;100478.13;;;25.70;100.00
44934;BME280;30667;43.614;1.442;2023-08-21T03:16:30;100474.13;;;25.68;100.00
44934;BME280;30667;43.614;1.442;2023-08-21T03:18:57;100474.13;;;25.68;100.00
44934;BME280;30667;43.614;1.442;2023-08-21T03:21:23;100474.91;;;25.68;100.00
44934;BME280;30667;43.614;1.442;2023-08-21T03:23:54;100470.06;;;25.62;100.00
44934;BME280;30667;43.614;1.442;2023-08-21T03:26:20;100464.81;;;25.56;100.00
44934;BME280;30667;43.614;1.442;2023-08-21T03:28:45;100474.25;;;25.52;100.00
44934;BME280;30667;43.614;1.442;2023-08-21T03:31:11;100475.34;;;25.47;100.00
44934;BME280;30667;43.614;1.442;2023-08-21T03:33:36;100479.56;;;25.41;100.00
44934;BME280;30667;43.614;1.442;2023-08-21T03:36:01;100474.78;;;25.38;100.00
44934;BME280;30667;43.614;1.442;2023-08-21T03:38:27;100475.97;;;25.37;100.00
44934;BME280;30667;43.614;1.442;2023-08-21T03:40:52;100479.56;;;25.41;100.00
44934;BME280;30667;43.614;1.442;2023-08-21T03:43:18;100474.72;;;25.34;100.00
44934;BME280;30667;43.614;1.442;2023-08-21T03:45:43;100478.63;;;25.33;100.00
44934;BME280;30667;43.614;1.442;2023-08-21T03:48:08;100482.84;;;25.27;100.00
44934;BME280;30667;43.614;1.442;2023-08-21T03:50:34;100479.81;;;25.32;100.00
44934;BME280;30667;43.614;1.442;2023-08-21T03:52:59;100488.13;;;25.32;100.00
44934;BME280;30667;43.614;1.442;2023-08-21T03:55:24;100480.94;;;25.28;100.00
44934;BME280;30667;43.614;1.442;2023-08-21T03:57:50;100473.41;;;25.28;100.00
44934;BME280;30667;43.614;1.442;2023-08-21T04:00:15;100485.28;;;25.29;100.00
44934;BME280;30667;43.614;1.442;2023-08-21T04:02:41;100488.50;;;25.31;100.00
44934;BME280;30667;43.614;1.442;2023-08-21T04:05:07;100477.66;;;25.26;100.00
44934;BME280;30667;43.614;1.442;2023-08-21T04:07:33;100479.53;;;25.18;100.00
44934;BME280;30667;43.614;1.442;2023-08-21T04:09:59;100480.44;;;25.26;100.00
44934;BME280;30667;43.614;1.442;2023-08-21T04:12:25;100483.97;;;25.23;100.00
44934;BME280;30667;43.614;1.442;2023-08-21T04:14:50;100494.69;;;25.24;100.00
44934;BME280;30667;43.614;1.442;2023-08-21T04:17:21;100488.56;;;25.15;100.00
44934;BME280;30667;43.614;1.442;2023-08-21T04:19:46;100493.28;;;25.14;100.00
44934;BME280;30667;43.614;1.442;2023-08-21T04:22:12;100492.84;;;25.12;100.00
44934;BME280;30667;43.614;1.442;2023-08-21T04:24:37;100495.19;;;25.10;100.00
44934;BME280;30667;43.614;1.442;2023-08-21T04:27:02;100495.50;;;25.05;100.00
44934;BME280;30667;43.614;1.442;2023-08-21T04:29:28;100496.22;;;25.02;100.00
44934;BME280;30667;43.614;1.442;2023-08-21T04:31:53;100493.50;;;25.06;100.00
44934;BME280;30667;43.614;1.442;2023-08-21T04:34:19;100498.47;;;24.96;100.00
44934;BME280;30667;43.614;1.442;2023-08-21T04:36:44;100505.97;;;24.96;100.00
44934;BME280;30667;43.614;1.442;2023-08-21T04:39:09;100508.03;;;24.99;100.00
44934;BME280;30667;43.614;1.442;2023-08-21T04:41:35;100505.50;;;24.94;100.00
44934;BME280;30667;43.614;1.442;2023-08-21T04:44:00;100507.91;;;24.95;100.00
44934;BME280;30667;43.614;1.442;2023-08-21T04:46:28;100510.97;;;25.10;100.00
44934;BME280;30667;43.614;1.442;2023-08-21T04:48:53;100503.41;;;25.26;100.00
44934;BME280;30667;43.614;1.442;2023-08-21T04:51:19;100506.25;;;25.49;100.00
44934;BME280;30667;43.614;1.442;2023-08-21T04:53:45;100514.91;;;25.67;100.00
44934;BME280;30667;43.614;1.442;2023-08-21T04:56:10;100516.63;;;25.76;100.00
44934;BME280;30667;43.614;1.442;2023-08-21T04:58:36;100518.72;;;25.82;100.00
44934;BME280;30667;43.614;1.442;2023-08-21T05:01:01;100519.69;;;25.93;100.00
44934;BME280;30667;43.614;1.442;2023-08-21T05:03:27;100519.09;;;26.04;100.00
44934;BME280;30667;43.614;1.442;2023-08-21T05:05:56;100529.13;;;25.89;100.00
44934;BME280;30667;43.614;1.442;2023-08-21T05:08:25;100528.19;;;25.58;100.00
44934;BME280;30667;43.614;1.442;2023-08-21T05:11:01;100540.56;;;25.64;100.00
44934;BME280;30667;43.614;1.442;2023-08-21T05:13:27;100533.38;;;25.83;100.00
44934;BME280;30667;43.614;1.442;2023-08-21T05:18:19;100550.56;;;25.49;100.00
44934;BME280;30667;43.614;1.442;2023-08-21T05:20:45;100550.00;;;25.60;100.00
44934;BME280;30667;43.614;1.442;2023-08-21T05:23:10;100549.69;;;25.65;100.00
44934;BME280;30667;43.614;1.442;2023-08-21T05:25:36;100541.56;;;25.76;100.00
44934;BME280;30667;43.614;1.442;2023-08-21T05:28:02;100560.03;;;25.91;100.00
44934;BME280;30667;43.614;1.442;2023-08-21T05:30:27;100563.91;;;25.86;100.00
44934;BME280;30667;43.614;1.442;2023-08-21T05:32:52;100561.44;;;25.58;100.00
44934;BME280;30667;43.614;1.442;2023-08-21T05:35:18;100565.38;;;25.57;100.00
44934;BME280;30667;43.614;1.442;2023-08-21T05:37:43;100563.09;;;25.63;100.00
44934;BME280;30667;43.614;1.442;2023-08-21T05:40:09;100553.13;;;25.58;100.00
44934;BME280;30667;43.614;1.442;2023-08-21T05:42:34;100557.00;;;25.53;100.00
44934;BME280;30667;43.614;1.442;2023-08-21T05:45:00;100555.72;;;25.70;100.00
44934;BME280;30667;43.614;1.442;2023-08-21T05:47:25;100556.53;;;25.71;100.00
44934;BME280;30667;43.614;1.442;2023-08-21T05:49:52;100565.47;;;25.84;100.00
44934;BME280;30667;43.614;1.442;2023-08-21T05:52:18;100572.00;;;25.95;100.00
44934;BME280;30667;43.614;1.442;2023-08-21T05:54:44;100572.91;;;25.80;100.00
44934;BME280;30667;43.614;1.442;2023-08-21T05:57:09;100568.13;;;25.57;100.00
44934;BME280;30667;43.614;1.442;2023-08-21T05:59:35;100581.41;;;25.67;100.00
44934;BME280;30667;43.614;1.442;2023-08-21T06:02:00;100573.81;;;25.64;100.00
44934;BME280;30667;43.614;1.442;2023-08-21T06:04:26;100577.66;;;25.79;100.00
44934;BME280;30667;43.614;1.442;2023-08-21T06:06:52;100584.97;;;25.68;100.00
44934;BME280;30667;43.614;1.442;2023-08-21T06:09:18;100590.16;;;25.69;100.00
44934;BME280;30667;43.614;1.442;2023-08-21T06:11:44;100580.00;;;25.77;100.00
44934;BME280;30667;43.614;1.442;2023-08-21T06:14:09;100577.97;;;25.74;100.00
44934;BME280;30667;43.614;1.442;2023-08-21T06:16:37;100579.56;;;25.75;100.00
44934;BME280;30667;43.614;1.442;2023-08-21T06:19:07;100575.94;;;25.71;100.00
44934;BME280;30667;43.614;1.442;2023-08-21T06:21:33;100582.31;;;25.75;100.00
44934;BME280;30667;43.614;1.442;2023-08-21T06:23:58;100585.97;;;25.79;100.00
44934;BME280;30667;43.614;1.442;2023-08-21T06:26:27;100591.22;;;25.84;100.00
44934;BME280;30667;43.614;1.442;2023-08-21T06:28:52;100590.47;;;25.87;100.00
44934;BME280;30667;43.614;1.442;2023-08-21T06:31:21;100599.78;;;25.56;100.00
44934;BME280;30667;43.614;1.442;2023-08-21T06:33:46;100602.09;;;25.73;100.00
44934;BME280;30667;43.614;1.442;2023-08-21T06:36:15;100599.31;;;25.73;100.00
44934;BME280;30667;43.614;1.442;2023-08-21T06:38:40;100608.81;;;25.72;100.00
44934;BME280;30667;43.614;1.442;2023-08-21T06:41:08;100600.94;;;26.17;100.00
44934;BME280;30667;43.614;1.442;2023-08-21T06:43:37;100599.16;;;26.28;100.00
44934;BME280;30667;43.614;1.442;2023-08-21T06:46:02;100602.09;;;26.39;100.00
44934;BME280;30667;43.614;1.442;2023-08-21T06:48:28;100593.75;;;26.62;100.00
44934;BME280;30667;43.614;1.442;2023-08-21T06:50:53;100596.72;;;26.50;100.00
44934;BME280;30667;43.614;1.442;2023-08-21T06:53:22;100590.13;;;26.35;100.00
44934;BME280;30667;43.614;1.442;2023-08-21T06:55:47;100594.34;;;26.25;100.00
44934;BME280;30667;43.614;1.442;2023-08-21T06:58:12;100596.28;;;26.48;100.00
44934;BME280;30667;43.614;1.442;2023-08-21T07:00:39;100588.75;;;26.49;100.00
44934;BME280;30667;43.614;1.442;2023-08-21T07:03:13;100583.69;;;26.54;100.00
44934;BME280;30667;43.614;1.442;2023-08-21T07:05:38;100590.53;;;26.60;100.00
44934;BME280;30667;43.614;1.442;2023-08-21T07:08:04;100590.78;;;26.52;100.00
44934;BME280;30667;43.614;1.442;2023-08-21T07:10:35;100595.50;;;26.48;100.00
44934;BME280;30667;43.614;1.442;2023-08-21T07:13:04;100595.81;;;26.19;100.00
44934;BME280;30667;43.614;1.442;2023-08-21T07:15:29;100590.38;;;26.50;100.00
44934;BME280;30667;43.614;1.442;2023-08-21T07:17:58;100598.22;;;26.44;100.00
44934;BME280;30667;43.614;1.442;2023-08-21T07:20:26;100593.31;;;26.60;100.00
44934;BME280;30667;43.614;1.442;2023-08-21T07:22:52;100600.41;;;26.81;100.00
44934;BME280;30667;43.614;1.442;2023-08-21T07:25:17;100601.19;;;26.81;100.00
44934;BME280;30667;43.614;1.442;2023-08-21T07:27:46;100595.13;;;27.03;100.00
44934;BME280;30667;43.614;1.442;2023-08-21T07:30:16;100595.97;;;26.76;100.00
44934;BME280;30667;43.614;1.442;2023-08-21T07:32:46;100585.25;;;26.52;100.00
44934;BME280;30667;43.614;1.442;2023-08-21T07:35:11;100589.88;;;26.67;100.00
44934;BME280;30667;43.614;1.442;2023-08-21T07:37:37;100581.97;;;26.69;100.00
44934;BME280;30667;43.614;1.442;2023-08-21T07:40:04;100584.56;;;26.85;100.00
44934;BME280;30667;43.614;1.442;2023-08-21T07:42:35;100580.25;;;26.88;100.00
44934;BME280;30667;43.614;1.442;2023-08-21T07:45:05;100582.16;;;26.83;100.00
44934;BME280;30667;43.614;1.442;2023-08-21T07:47:30;100582.66;;;26.89;100.00
44934;BME280;30667;43.614;1.442;2023-08-21T07:49:56;100585.41;;;26.86;100.00
44934;BME280;30667;43.614;1.442;2023-08-21T07:52:22;100571.41;;;27.09;100.00
44934;BME280;30667;43.614;1.442;2023-08-21T07:54:52;100570.28;;;27.13;100.00
44934;BME280;30667;43.614;1.442;2023-08-21T07:57:18;100578.38;;;27.26;100.00
44934;BME280;30667;43.614;1.442;2023-08-21T07:59:46;100573.91;;;27.17;100.00
44934;BME280;30667;43.614;1.442;2023-08-21T08:02:12;100575.03;;;27.13;100.00
44934;BME280;30667;43.614;1.442;2023-08-21T08:04:38;100576.78;;;27.25;100.00
44934;BME280;30667;43.614;1.442;2023-08-21T08:07:04;100575.75;;;27.06;100.00
44934;BME280;30667;43.614;1.442;2023-08-21T08:09:29;100573.91;;;27.17;100.00
44934;BME280;30667;43.614;1.442;2023-08-21T08:12:01;100579.75;;;27.39;100.00
44934;BME280;30667;43.614;1.442;2023-08-21T08:14:26;100577.78;;;27.40;100.00
44934;BME280;30667;43.614;1.442;2023-08-21T08:16:51;100571.78;;;27.38;100.00
44934;BME280;30667;43.614;1.442;2023-08-21T08:19:17;100573.06;;;27.13;100.00
44934;BME280;30667;43.614;1.442;2023-08-21T08:21:42;100576.25;;;27.46;100.00
44934;BME280;30667;43.614;1.442;2023-08-21T08:24:08;100573.44;;;27.42;100.00
44934;BME280;30667;43.614;1.442;2023-08-21T08:26:34;100569.56;;;27.50;100.00
44934;BME280;30667;43.614;1.442;2023-08-21T08:28:59;100573.75;;;27.71;100.00
44934;BME280;30667;43.614;1.442;2023-08-21T08:31:24;100570.75;;;27.49;100.00
44934;BME280;30667;43.614;1.442;2023-08-21T08:33:52;100569.91;;;27.45;100.00
44934;BME280;30667;43.614;1.442;2023-08-21T08:36:18;100567.31;;;27.63;100.00
44934;BME280;30667;43.614;1.442;2023-08-21T08:38:43;100566.22;;;27.38;100.00
44934;BME280;30667;43.614;1.442;2023-08-21T08:41:37;100563.72;;;27.29;100.00
44934;BME280;30667;43.614;1.442;2023-08-21T08:44:06;100554.19;;;27.30;100.00
44934;BME280;30667;43.614;1.442;2023-08-21T08:46:32;100561.53;;;27.42;100.00
44934;BME280;30667;43.614;1.442;2023-08-21T08:49:01;100557.09;;;27.37;100.00
44934;BME280;30667;43.614;1.442;2023-08-21T08:51:30;100554.66;;;27.32;100.00
44934;BME280;30667;43.614;1.442;2023-08-21T08:54:00;100554.94;;;27.27;100.00
44934;BME280;30667;43.614;1.442;2023-08-21T08:56:25;100551.91;;;27.32;100.00
44934;BME280;30667;43.614;1.442;2023-08-21T08:58:51;100549.59;;;27.41;100.00
44934;BME280;30667;43.614;1.442;2023-08-21T09:01:17;100549.19;;;27.39;100.00
44934;BME280;30667;43.614;1.442;2023-08-21T09:03:42;100545.59;;;27.35;100.00
44934;BME280;30667;43.614;1.442;2023-08-21T09:06:08;100542.25;;;27.26;100.00
44934;BME280;30667;43.614;1.442;2023-08-21T09:08:33;100539.03;;;27.54;100.00
44934;BME280;30667;43.614;1.442;2023-08-21T09:11:04;100538.81;;;27.70;100.00
44934;BME280;30667;43.614;1.442;2023-08-21T09:13:31;100532.06;;;27.75;100.00
44934;BME280;30667;43.614;1.442;2023-08-21T09:15:57;100527.38;;;27.82;100.00
44934;BME280;30667;43.614;1.442;2023-08-21T09:18:23;100534.16;;;27.81;100.00
44934;BME280;30667;43.614;1.442;2023-08-21T09:20:49;100523.06;;;27.88;100.00
44934;BME280;30667;43.614;1.442;2023-08-21T09:23:15;100521.91;;;27.93;100.00
44934;BME280;30667;43.614;1.442;2023-08-21T09:25:47;100528.00;;;28.02;100.00
44934;BME280;30667;43.614;1.442;2023-08-21T09:28:13;100516.88;;;28.06;100.00
44934;BME280;30667;43.614;1.442;2023-08-21T09:30:53;100514.13;;;28.09;100.00
44934;BME280;30667;43.614;1.442;2023-08-21T09:33:23;100518.53;;;28.14;100.00
44934;BME280;30667;43.614;1.442;2023-08-21T09:35:51;100510.63;;;28.16;100.00
44934;BME280;30667;43.614;1.442;2023-08-21T09:38:18;100513.44;;;28.20;100.00
44934;BME280;30667;43.614;1.442;2023-08-21T09:40:50;100513.78;;;28.15;100.00
44934;BME280;30667;43.614;1.442;2023-08-21T09:43:16;100511.41;;;28.13;100.00
44934;BME280;30667;43.614;1.442;2023-08-21T09:45:46;100509.44;;;28.17;100.00
44934;BME280;30667;43.614;1.442;2023-08-21T09:48:12;100509.88;;;28.23;100.00
44934;BME280;30667;43.614;1.442;2023-08-21T09:50:38;100505.13;;;28.27;100.00
44934;BME280;30667;43.614;1.442;2023-08-21T09:53:06;100507.91;;;28.27;100.00
44934;BME280;30667;43.614;1.442;2023-08-21T09:55:32;100502.41;;;28.34;100.00
44934;BME280;30667;43.614;1.442;2023-08-21T09:58:01;100501.63;;;28.41;100.00
44934;BME280;30667;43.614;1.442;2023-08-21T10:00:37;100498.47;;;28.39;100.00
44934;BME280;30667;43.614;1.442;2023-08-21T10:03:04;100502.38;;;28.31;100.00
44934;BME280;30667;43.614;1.442;2023-08-21T10:05:37;100495.63;;;28.35;100.00
44934;BME280;30667;43.614;1.442;2023-08-21T10:08:04;100496.06;;;28.37;100.00
44934;BME280;30667;43.614;1.442;2023-08-21T10:10:35;100493.28;;;28.37;100.00
44934;BME280;30667;43.614;1.442;2023-08-21T10:13:02;100489.28;;;28.38;100.00
44934;BME280;30667;43.614;1.442;2023-08-21T10:15:29;100494.13;;;28.49;100.00
44934;BME280;30667;43.614;1.442;2023-08-21T10:17:56;100484.97;;;28.44;100.00
44934;BME280;30667;43.614;1.442;2023-08-21T10:20:25;100485.31;;;28.36;100.00
44934;BME280;30667;43.614;1.442;2023-08-21T10:22:55;100487.69;;;28.34;100.00
44934;BME280;30667;43.614;1.442;2023-08-21T10:25:29;100481.31;;;28.33;100.00
44934;BME280;30667;43.614;1.442;2023-08-21T10:28:00;100482.84;;;28.23;100.00
44934;BME280;30667;43.614;1.442;2023-08-21T10:30:29;100478.84;;;28.21;100.00
44934;BME280;30667;43.614;1.442;2023-08-21T10:32:56;100473.66;;;28.19;100.00
44934;BME280;30667;43.614;1.442;2023-08-21T10:35:30;100478.41;;;28.15;100.00
44934;BME280;30667;43.614;1.442;2023-08-21T10:38:14;100467.69;;;28.14;100.00
44934;BME280;30667;43.614;1.442;2023-08-21T10:41:03;100460.91;;;28.11;100.00
44934;BME280;30667;43.614;1.442;2023-08-21T10:43:46;100464.91;;;28.17;100.00
44934;BME280;30667;43.614;1.442;2023-08-21T10:46:12;100461.81;;;28.30;100.00
44934;BME280;30667;43.614;1.442;2023-08-21T10:48:38;100462.97;;;28.21;100.00
44934;BME280;30667;43.614;1.442;2023-08-21T10:51:06;100455.00;;;28.16;100.00
44934;BME280;30667;43.614;1.442;2023-08-21T10:53:33;100444.75;;;28.38;100.00
44934;BME280;30667;43.614;1.442;2023-08-21T10:56:02;100451.09;;;28.35;100.00
44934;BME280;30667;43.614;1.442;2023-08-21T10:58:35;100441.75;;;28.61;100.00
44934;BME280;30667;43.614;1.442;2023-08-21T11:01:03;100446.19;;;28.84;100.00
44934;BME280;30667;43.614;1.442;2023-08-21T11:03:28;100436.25;;;28.83;100.00
44934;BME280;30667;43.614;1.442;2023-08-21T11:06:05;100436.09;;;28.51;100.00
44934;BME280;30667;43.614;1.442;2023-08-21T11:08:32;100436.81;;;28.37;100.00
44934;BME280;30667;43.614;1.442;2023-08-21T11:11:03;100429.66;;;28.36;100.00
44934;BME280;30667;43.614;1.442;2023-08-21T11:13:28;100419.31;;;28.36;100.00
44934;BME280;30667;43.614;1.442;2023-08-21T11:16:02;100420.47;;;28.32;100.00
44934;BME280;30667;43.614;1.442;2023-08-21T11:18:36;100420.06;;;28.26;100.00
44934;BME280;30667;43.614;1.442;2023-08-21T11:21:07;100415.75;;;28.43;100.00
44934;BME280;30667;43.614;1.442;2023-08-21T11:23:34;100416.53;;;28.33;100.00
44934;BME280;30667;43.614;1.442;2023-08-21T11:26:01;100408.50;;;28.24;100.00
44934;BME280;30667;43.614;1.442;2023-08-21T11:28:28;100409.31;;;28.24;100.00
44934;BME280;30667;43.614;1.442;2023-08-21T11:30:56;100401.31;;;28.19;100.00
44934;BME280;30667;43.614;1.442;2023-08-21T11:33:21;100401.31;;;28.19;100.00
44934;BME280;30667;43.614;1.442;2023-08-21T11:35:47;100394.97;;;28.15;100.00
44934;BME280;30667;43.614;1.442;2023-08-21T11:38:20;100393.34;;;28.14;100.00
44934;BME280;30667;43.614;1.442;2023-08-21T11:40:53;100398.91;;;28.14;100.00
44934;BME280;30667;43.614;1.442;2023-08-21T11:43:18;100394.94;;;28.12;100.00
44934;BME280;30667;43.614;1.442;2023-08-21T11:45:45;100387.38;;;28.12;100.00
44934;BME280;30667;43.614;1.442;2023-08-21T11:48:11;100389.00;;;28.13;100.00
44934;BME280;30667;43.614;1.442;2023-08-21T11:50:36;100384.59;;;28.12;100.00
44934;BME280;30667;43.614;1.442;2023-08-21T11:53:02;100374.66;;;28.11;100.00
44934;BME280;30667;43.614;1.442;2023-08-21T11:55:29;100375.88;;;28.17;100.00
44934;BME280;30667;43.614;1.442;2023-08-21T11:57:54;100365.97;;;28.16;100.00
44934;BME280;30667;43.614;1.442;2023-08-21T12:00:27;100364.38;;;28.15;100.00
44934;BME280;30667;43.614;1.442;2023-08-21T12:03:01;100362.38;;;28.16;100.00
44934;BME280;30667;43.614;1.442;2023-08-21T12:05:28;100358.00;;;28.15;100.00
44934;BME280;30667;43.614;1.442;2023-08-21T12:07:54;100350.06;;;28.13;100.00
44934;BME280;30667;43.614;1.442;2023-08-21T12:10:26;100349.66;;;28.15;100.00
44934;BME280;30667;43.614;1.442;2023-08-21T12:12:53;100349.28;;;28.16;100.00
44934;BME280;30667;43.614;1.442;2023-08-21T12:15:19;100343.28;;;28.14;100.00
44934;BME280;30667;43.614;1.442;2023-08-21T12:17:44;100346.44;;;28.13;100.00
44934;BME280;30667;43.614;1.442;2023-08-21T12:20:10;100340.13;;;28.16;100.00
44934;BME280;30667;43.614;1.442;2023-08-21T12:22:39;100331.75;;;28.12;100.00
44934;BME280;30667;43.614;1.442;2023-08-21T12:25:05;100336.16;;;28.13;100.00
44934;BME280;30667;43.614;1.442;2023-08-21T12:27:31;100321.81;;;28.11;100.00
44934;BME280;30667;43.614;1.442;2023-08-21T12:29:57;100324.63;;;28.15;100.00
44934;BME280;30667;43.614;1.442;2023-08-21T12:32:22;100322.25;;;28.17;100.00
44934;BME280;30667;43.614;1.442;2023-08-21T12:34:48;100317.47;;;28.14;100.00
44934;BME280;30667;43.614;1.442;2023-08-21T12:37:13;100304.72;;;28.13;100.00
44934;BME280;30667;43.614;1.442;2023-08-21T12:39:39;100316.66;;;28.13;100.00
44934;BME280;30667;43.614;1.442;2023-08-21T12:42:04;100312.69;;;28.14;100.00
44934;BME280;30667;43.614;1.442;2023-08-21T12:44:30;100313.50;;;28.15;100.00
44934;BME280;30667;43.614;1.442;2023-08-21T12:46:55;100300.75;;;28.10;100.00